sensor_id;sensor_type;location;lat;lon;timestamp;P1;durP1;ratioP1;P2;durP2;ratioP2
6424;SDS011;12193;42.642;23.384;2023-05-07T00:02:03;6.77;;;4.57;;
6424;SDS011;12193;42.642;23.384;2023-05-07T00:04:33;6.87;;;4.30;;
6424;SDS011;12193;42.642;23.384;2023-05-07T03:08:38;16.23;;;10.67;;
6424;SDS011;12193;42.642;23.384;2023-05-07T03:11:09;16.97;;;10.57;;
6424;SDS011;12193;42.642;23.384;2023-05-07T03:13:38;15.47;;;9.83;;
6424;SDS011;12193;42.642;23.384;2023-05-07T03:16:08;16.13;;;10.30;;
6424;SDS011;12193;42.642;23.384;2023-05-07T03:18:37;16.13;;;9.93;;
6424;SDS011;12193;42.642;23.384;2023-05-07T03:21:06;14.33;;;9.57;;
6424;SDS011;12193;42.642;23.384;2023-05-07T03:23:38;17.67;;;10.93;;
6424;SDS011;12193;42.642;23.384;2023-05-07T03:26:07;18.63;;;10.90;;
6424;SDS011;12193;42.642;23.384;2023-05-07T03:28:37;16.60;;;10.37;;
6424;SDS011;12193;42.642;23.384;2023-05-07T03:31:06;18.60;;;11.13;;
6424;SDS011;12193;42.642;23.384;2023-05-07T03:33:38;21.10;;;11.10;;
6424;SDS011;12193;42.642;23.384;2023-05-07T03:36:18;21.00;;;11.63;;
6424;SDS011;12193;42.642;23.384;2023-05-07T03:38:50;21.93;;;11.93;;
6424;SDS011;12193;42.642;23.384;2023-05-07T03:41:20;19.57;;;11.93;;
6424;SDS011;12193;42.642;23.384;2023-05-07T03:43:49;17.97;;;10.03;;
6424;SDS011;12193;42.642;23.384;2023-05-07T03:46:18;17.67;;;10.90;;
6424;SDS011;12193;42.642;23.384;2023-05-07T03:48:48;19.33;;;11.07;;
6424;SDS011;12193;42.642;23.384;2023-05-07T03:51:17;20.63;;;11.30;;
6424;SDS011;12193;42.642;23.384;2023-05-07T03:53:46;18.07;;;11.20;;
6424;SDS011;12193;42.642;23.384;2023-05-07T03:56:21;18.47;;;11.77;;
6424;SDS011;12193;42.642;23.384;2023-05-07T03:58:52;19.60;;;11.93;;
6424;SDS011;12193;42.642;23.384;2023-05-07T04:01:21;18.27;;;11.63;;
6424;SDS011;12193;42.642;23.384;2023-05-07T04:03:51;20.57;;;11.70;;
6424;SDS011;12193;42.642;23.384;2023-05-07T04:06:20;17.37;;;11.83;;
6424;SDS011;12193;42.642;23.384;2023-05-07T04:08:50;20.30;;;11.77;;
6424;SDS011;12193;42.642;23.384;2023-05-07T04:11:22;17.93;;;11.40;;
6424;SDS011;12193;42.642;23.384;2023-05-07T04:13:51;17.40;;;11.13;;
6424;SDS011;12193;42.642;23.384;2023-05-07T04:16:21;18.77;;;11.80;;
6424;SDS011;12193;42.642;23.384;2023-05-07T04:18:50;21.33;;;11.50;;
6424;SDS011;12193;42.642;23.384;2023-05-07T04:21:19;18.53;;;11.80;;
6424;SDS011;12193;42.642;23.384;2023-05-07T04:23:49;18.53;;;11.87;;
6424;SDS011;12193;42.642;23.384;2023-05-07T04:26:21;19.60;;;12.00;;
6424;SDS011;12193;42.642;23.384;2023-05-07T04:28:50;17.27;;;11.37;;
6424;SDS011;12193;42.642;23.384;2023-05-07T04:31:19;19.50;;;12.17;;
6424;SDS011;12193;42.642;23.384;2023-05-07T04:33:49;18.63;;;11.57;;
6424;SDS011;12193;42.642;23.384;2023-05-07T04:36:18;17.47;;;11.30;;
6424;SDS011;12193;42.642;23.384;2023-05-07T04:38:48;20.20;;;12.40;;
6424;SDS011;12193;42.642;23.384;2023-05-07T04:41:17;19.97;;;11.30;;
6424;SDS011;12193;42.642;23.384;2023-05-07T04:43:48;20.70;;;11.77;;
6424;SDS011;12193;42.642;23.384;2023-05-07T04:46:18;19.50;;;11.50;;
6424;SDS011;12193;42.642;23.384;2023-05-07T04:48:47;17.17;;;11.53;;
6424;SDS011;12193;42.642;23.384;2023-05-07T04:51:16;18.37;;;11.43;;
6424;SDS011;12193;42.642;23.384;2023-05-07T04:53:46;19.83;;;12.50;;
6424;SDS011;12193;42.642;23.384;2023-05-07T04:56:15;18.77;;;11.97;;
6424;SDS011;12193;42.642;23.384;2023-05-07T04:58:44;17.10;;;11.77;;
6424;SDS011;12193;42.642;23.384;2023-05-07T05:01:16;17.03;;;11.20;;
6424;SDS011;12193;42.642;23.384;2023-05-07T05:03:45;15.73;;;10.23;;
6424;SDS011;12193;42.642;23.384;2023-05-07T05:06:14;16.33;;;10.53;;
6424;SDS011;12193;42.642;23.384;2023-05-07T05:08:44;17.23;;;10.40;;
6424;SDS011;12193;42.642;23.384;2023-05-07T05:11:13;16.43;;;10.57;;
6424;SDS011;12193;42.642;23.384;2023-05-07T05:13:42;15.00;;;10.10;;
6424;SDS011;12193;42.642;23.384;2023-05-07T05:16:16;15.67;;;9.87;;
6424;SDS011;12193;42.642;23.384;2023-05-07T05:18:46;17.30;;;10.10;;
6424;SDS011;12193;42.642;23.384;2023-05-07T05:21:15;15.30;;;10.37;;
6424;SDS011;12193;42.642;23.384;2023-05-07T05:23:44;15.23;;;10.03;;
6424;SDS011;12193;42.642;23.384;2023-05-07T05:26:14;13.80;;;9.80;;
6424;SDS011;12193;42.642;23.384;2023-05-07T05:28:43;14.27;;;9.77;;
6424;SDS011;12193;42.642;23.384;2023-05-07T05:31:12;14.90;;;9.03;;
6424;SDS011;12193;42.642;23.384;2023-05-07T05:33:44;12.43;;;9.40;;
6424;SDS011;12193;42.642;23.384;2023-05-07T05:36:13;14.80;;;9.43;;
6424;SDS011;12193;42.642;23.384;2023-05-07T05:38:43;12.77;;;9.43;;
6424;SDS011;12193;42.642;23.384;2023-05-07T05:41:12;12.57;;;9.33;;
6424;SDS011;12193;42.642;23.384;2023-05-07T05:43:41;12.83;;;8.83;;
6424;SDS011;12193;42.642;23.384;2023-05-07T05:46:11;13.90;;;9.53;;
6424;SDS011;12193;42.642;23.384;2023-05-07T05:48:40;13.00;;;9.17;;
6424;SDS011;12193;42.642;23.384;2023-05-07T05:51:12;15.37;;;9.30;;
6424;SDS011;12193;42.642;23.384;2023-05-07T05:53:41;16.10;;;9.60;;
6424;SDS011;12193;42.642;23.384;2023-05-07T05:56:10;14.77;;;9.80;;
6424;SDS011;12193;42.642;23.384;2023-05-07T05:58:39;16.13;;;9.50;;
6424;SDS011;12193;42.642;23.384;2023-05-07T06:01:09;14.40;;;9.37;;
6424;SDS011;12193;42.642;23.384;2023-05-07T06:03:38;15.53;;;10.33;;
6424;SDS011;12193;42.642;23.384;2023-05-07T06:06:07;16.87;;;10.30;;
6424;SDS011;12193;42.642;23.384;2023-05-07T06:08:39;17.50;;;10.57;;
6424;SDS011;12193;42.642;23.384;2023-05-07T06:11:09;13.13;;;9.43;;
6424;SDS011;12193;42.642;23.384;2023-05-07T06:13:38;14.83;;;9.00;;
6424;SDS011;12193;42.642;23.384;2023-05-07T06:16:08;15.67;;;9.40;;
6424;SDS011;12193;42.642;23.384;2023-05-07T06:18:37;12.77;;;9.20;;
6424;SDS011;12193;42.642;23.384;2023-05-07T06:21:06;14.33;;;10.10;;
6424;SDS011;12193;42.642;23.384;2023-05-07T06:23:35;13.40;;;9.17;;
6424;SDS011;12193;42.642;23.384;2023-05-07T06:26:08;15.60;;;8.93;;
6424;SDS011;12193;42.642;23.384;2023-05-07T06:28:37;12.90;;;9.20;;
6424;SDS011;12193;42.642;23.384;2023-05-07T06:31:12;14.40;;;9.30;;
6424;SDS011;12193;42.642;23.384;2023-05-07T06:33:43;14.33;;;8.60;;
6424;SDS011;12193;42.642;23.384;2023-05-07T06:36:13;12.77;;;8.60;;
6424;SDS011;12193;42.642;23.384;2023-05-07T06:38:45;11.60;;;8.93;;
6424;SDS011;12193;42.642;23.384;2023-05-07T06:41:14;13.50;;;9.17;;
6424;SDS011;12193;42.642;23.384;2023-05-07T06:43:44;15.10;;;8.33;;
6424;SDS011;12193;42.642;23.384;2023-05-07T06:46:13;11.80;;;8.10;;
6424;SDS011;12193;42.642;23.384;2023-05-07T06:48:42;12.60;;;8.67;;
6424;SDS011;12193;42.642;23.384;2023-05-07T06:51:11;12.70;;;7.97;;
6424;SDS011;12193;42.642;23.384;2023-05-07T06:53:41;15.10;;;8.90;;
6424;SDS011;12193;42.642;23.384;2023-05-07T06:56:13;12.13;;;8.43;;
6424;SDS011;12193;42.642;23.384;2023-05-07T06:58:42;15.30;;;8.93;;
6424;SDS011;12193;42.642;23.384;2023-05-07T07:01:11;12.93;;;8.80;;
6424;SDS011;12193;42.642;23.384;2023-05-07T07:03:40;10.97;;;7.80;;
6424;SDS011;12193;42.642;23.384;2023-05-07T07:06:10;12.07;;;8.43;;
6424;SDS011;12193;42.642;23.384;2023-05-07T07:08:39;15.03;;;7.90;;
6424;SDS011;12193;42.642;23.384;2023-05-07T07:11:09;13.27;;;8.60;;
6424;SDS011;12193;42.642;23.384;2023-05-07T07:13:41;11.80;;;8.60;;
6424;SDS011;12193;42.642;23.384;2023-05-07T07:16:11;15.03;;;7.70;;
6424;SDS011;12193;42.642;23.384;2023-05-07T07:18:40;10.97;;;7.70;;
6424;SDS011;12193;42.642;23.384;2023-05-07T07:21:09;13.47;;;8.20;;
6424;SDS011;12193;42.642;23.384;2023-05-07T07:23:39;12.90;;;8.30;;
6424;SDS011;12193;42.642;23.384;2023-05-07T07:26:08;11.67;;;8.00;;
6424;SDS011;12193;42.642;23.384;2023-05-07T07:28:44;10.93;;;8.07;;
6424;SDS011;12193;42.642;23.384;2023-05-07T07:31:14;11.60;;;7.80;;
6424;SDS011;12193;42.642;23.384;2023-05-07T07:33:43;11.53;;;7.87;;
6424;SDS011;12193;42.642;23.384;2023-05-07T07:36:12;10.83;;;7.83;;
6424;SDS011;12193;42.642;23.384;2023-05-07T07:38:42;12.90;;;8.60;;
6424;SDS011;12193;42.642;23.384;2023-05-07T07:41:11;15.03;;;9.03;;
6424;SDS011;12193;42.642;23.384;2023-05-07T07:43:41;13.63;;;8.50;;
6424;SDS011;12193;42.642;23.384;2023-05-07T07:46:13;13.07;;;8.83;;
6424;SDS011;12193;42.642;23.384;2023-05-07T07:48:42;13.90;;;8.47;;
6424;SDS011;12193;42.642;23.384;2023-05-07T07:51:11;11.57;;;7.60;;
6424;SDS011;12193;42.642;23.384;2023-05-07T07:53:40;14.50;;;7.43;;
6424;SDS011;12193;42.642;23.384;2023-05-07T07:56:10;12.23;;;8.10;;
6424;SDS011;12193;42.642;23.384;2023-05-07T07:58:39;11.73;;;8.03;;
6424;SDS011;12193;42.642;23.384;2023-05-07T08:01:11;13.90;;;7.83;;
6424;SDS011;12193;42.642;23.384;2023-05-07T08:03:42;16.20;;;8.00;;
6424;SDS011;12193;42.642;23.384;2023-05-07T08:06:12;12.17;;;8.17;;
6424;SDS011;12193;42.642;23.384;2023-05-07T08:08:41;11.03;;;8.00;;
6424;SDS011;12193;42.642;23.384;2023-05-07T08:11:10;13.10;;;7.87;;
6424;SDS011;12193;42.642;23.384;2023-05-07T08:13:40;15.13;;;7.83;;
6424;SDS011;12193;42.642;23.384;2023-05-07T08:16:12;14.67;;;7.93;;
6424;SDS011;12193;42.642;23.384;2023-05-07T08:18:41;10.90;;;8.10;;
6424;SDS011;12193;42.642;23.384;2023-05-07T08:21:11;12.47;;;8.77;;
6424;SDS011;12193;42.642;23.384;2023-05-07T08:23:40;11.53;;;7.77;;
6424;SDS011;12193;42.642;23.384;2023-05-07T08:26:09;12.33;;;7.87;;
6424;SDS011;12193;42.642;23.384;2023-05-07T08:28:40;13.00;;;8.50;;
6424;SDS011;12193;42.642;23.384;2023-05-07T08:31:11;11.53;;;7.70;;
6424;SDS011;12193;42.642;23.384;2023-05-07T08:33:41;11.80;;;8.23;;
6424;SDS011;12193;42.642;23.384;2023-05-07T08:36:10;13.23;;;8.00;;
6424;SDS011;12193;42.642;23.384;2023-05-07T08:38:40;10.80;;;7.53;;
6424;SDS011;12193;42.642;23.384;2023-05-07T08:41:11;10.13;;;7.47;;
6424;SDS011;12193;42.642;23.384;2023-05-07T08:43:41;11.40;;;7.67;;
6424;SDS011;12193;42.642;23.384;2023-05-07T08:46:13;11.30;;;7.63;;
6424;SDS011;12193;42.642;23.384;2023-05-07T08:48:47;10.30;;;7.30;;
6424;SDS011;12193;42.642;23.384;2023-05-07T08:51:18;8.80;;;6.90;;
6424;SDS011;12193;42.642;23.384;2023-05-07T08:53:49;11.27;;;7.10;;
6424;SDS011;12193;42.642;23.384;2023-05-07T08:56:18;9.50;;;6.77;;
6424;SDS011;12193;42.642;23.384;2023-05-07T08:58:48;9.70;;;6.47;;
6424;SDS011;12193;42.642;23.384;2023-05-07T09:01:25;9.73;;;6.50;;
6424;SDS011;12193;42.642;23.384;2023-05-07T09:03:54;11.17;;;6.80;;
6424;SDS011;12193;42.642;23.384;2023-05-07T09:06:24;10.20;;;6.70;;
6424;SDS011;12193;42.642;23.384;2023-05-07T09:08:54;8.93;;;6.23;;
6424;SDS011;12193;42.642;23.384;2023-05-07T09:11:24;6.90;;;5.67;;
6424;SDS011;12193;42.642;23.384;2023-05-07T09:13:54;11.70;;;5.97;;
6424;SDS011;12193;42.642;23.384;2023-05-07T09:16:30;8.20;;;5.50;;
6424;SDS011;12193;42.642;23.384;2023-05-07T09:18:59;9.27;;;6.43;;
6424;SDS011;12193;42.642;23.384;2023-05-07T09:21:29;7.80;;;5.77;;
6424;SDS011;12193;42.642;23.384;2023-05-07T09:23:58;8.33;;;5.70;;
6424;SDS011;12193;42.642;23.384;2023-05-07T09:26:27;9.40;;;5.97;;
6424;SDS011;12193;42.642;23.384;2023-05-07T09:28:59;13.03;;;5.97;;
6424;SDS011;12193;42.642;23.384;2023-05-07T09:31:31;7.80;;;5.67;;
6424;SDS011;12193;42.642;23.384;2023-05-07T09:34:00;9.73;;;5.30;;
6424;SDS011;12193;42.642;23.384;2023-05-07T09:36:31;10.87;;;5.77;;
6424;SDS011;12193;42.642;23.384;2023-05-07T09:39:00;8.30;;;5.57;;
6424;SDS011;12193;42.642;23.384;2023-05-07T09:41:30;9.03;;;5.50;;
6424;SDS011;12193;42.642;23.384;2023-05-07T09:43:59;6.90;;;5.30;;
6424;SDS011;12193;42.642;23.384;2023-05-07T09:46:33;6.70;;;5.33;;
6424;SDS011;12193;42.642;23.384;2023-05-07T09:49:04;6.47;;;4.90;;
6424;SDS011;12193;42.642;23.384;2023-05-07T09:51:41;7.93;;;5.60;;
6424;SDS011;12193;42.642;23.384;2023-05-07T09:54:14;7.03;;;5.83;;
6424;SDS011;12193;42.642;23.384;2023-05-07T09:56:44;8.93;;;5.00;;
6424;SDS011;12193;42.642;23.384;2023-05-07T09:59:14;8.97;;;5.03;;
6424;SDS011;12193;42.642;23.384;2023-05-07T10:01:47;8.83;;;5.17;;
6424;SDS011;12193;42.642;23.384;2023-05-07T10:04:18;8.20;;;5.10;;
6424;SDS011;12193;42.642;23.384;2023-05-07T10:06:49;6.00;;;4.73;;
6424;SDS011;12193;42.642;23.384;2023-05-07T10:09:19;7.13;;;4.83;;
6424;SDS011;12193;42.642;23.384;2023-05-07T10:11:49;5.40;;;4.47;;
6424;SDS011;12193;42.642;23.384;2023-05-07T10:14:19;5.87;;;4.30;;
6424;SDS011;12193;42.642;23.384;2023-05-07T10:16:52;8.07;;;4.87;;
6424;SDS011;12193;42.642;23.384;2023-05-07T10:19:22;6.07;;;4.70;;
6424;SDS011;12193;42.642;23.384;2023-05-07T10:21:54;6.23;;;4.70;;
6424;SDS011;12193;42.642;23.384;2023-05-07T10:24:26;7.50;;;5.10;;
6424;SDS011;12193;42.642;23.384;2023-05-07T10:26:58;8.03;;;4.57;;
6424;SDS011;12193;42.642;23.384;2023-05-07T10:29:32;6.43;;;4.10;;
6424;SDS011;12193;42.642;23.384;2023-05-07T10:32:24;8.00;;;4.80;;
6424;SDS011;12193;42.642;23.384;2023-05-07T10:35:04;7.07;;;4.43;;
6424;SDS011;12193;42.642;23.384;2023-05-07T10:37:39;7.17;;;5.20;;
6424;SDS011;12193;42.642;23.384;2023-05-07T10:40:09;9.90;;;5.10;;
6424;SDS011;12193;42.642;23.384;2023-05-07T10:42:52;7.47;;;4.63;;
6424;SDS011;12193;42.642;23.384;2023-05-07T10:45:22;7.37;;;5.03;;
6424;SDS011;12193;42.642;23.384;2023-05-07T10:48:08;6.00;;;4.90;;
6424;SDS011;12193;42.642;23.384;2023-05-07T10:50:38;5.57;;;4.53;;
6424;SDS011;12193;42.642;23.384;2023-05-07T11:02:02;6.60;;;5.20;;
6424;SDS011;12193;42.642;23.384;2023-05-07T11:04:36;9.10;;;5.30;;
6424;SDS011;12193;42.642;23.384;2023-05-07T11:10:08;6.00;;;4.77;;
6424;SDS011;12193;42.642;23.384;2023-05-07T11:12:50;5.80;;;4.57;;
6424;SDS011;12193;42.642;23.384;2023-05-07T11:15:36;7.53;;;4.97;;
6424;SDS011;12193;42.642;23.384;2023-05-07T11:18:07;5.63;;;4.93;;
6424;SDS011;12193;42.642;23.384;2023-05-07T11:26:28;6.77;;;5.33;;
6424;SDS011;12193;42.642;23.384;2023-05-07T11:28:58;6.07;;;5.10;;
6424;SDS011;12193;42.642;23.384;2023-05-07T11:31:29;6.20;;;4.90;;
6424;SDS011;12193;42.642;23.384;2023-05-07T11:33:58;6.90;;;5.07;;
6424;SDS011;12193;42.642;23.384;2023-05-07T11:36:31;11.27;;;5.70;;
6424;SDS011;12193;42.642;23.384;2023-05-07T11:39:01;6.23;;;5.00;;
6424;SDS011;12193;42.642;23.384;2023-05-07T11:41:34;6.53;;;4.90;;
6424;SDS011;12193;42.642;23.384;2023-05-07T11:44:04;6.53;;;5.10;;
6424;SDS011;12193;42.642;23.384;2023-05-07T11:46:33;6.10;;;5.20;;
6424;SDS011;12193;42.642;23.384;2023-05-07T11:49:03;7.27;;;4.97;;
6424;SDS011;12193;42.642;23.384;2023-05-07T11:51:35;8.03;;;5.80;;
6424;SDS011;12193;42.642;23.384;2023-05-07T11:54:05;7.07;;;5.20;;
6424;SDS011;12193;42.642;23.384;2023-05-07T11:56:37;6.27;;;4.93;;
6424;SDS011;12193;42.642;23.384;2023-05-07T11:59:06;6.67;;;5.00;;
6424;SDS011;12193;42.642;23.384;2023-05-07T12:01:35;6.97;;;5.33;;
6424;SDS011;12193;42.642;23.384;2023-05-07T12:04:05;6.57;;;4.97;;
6424;SDS011;12193;42.642;23.384;2023-05-07T12:06:38;7.70;;;5.27;;
6424;SDS011;12193;42.642;23.384;2023-05-07T12:09:07;8.60;;;5.60;;
6424;SDS011;12193;42.642;23.384;2023-05-07T12:11:39;6.93;;;5.37;;
6424;SDS011;12193;42.642;23.384;2023-05-07T12:14:08;8.77;;;5.43;;
6424;SDS011;12193;42.642;23.384;2023-05-07T12:16:37;7.83;;;5.27;;
6424;SDS011;12193;42.642;23.384;2023-05-07T12:19:08;5.70;;;5.00;;
6424;SDS011;12193;42.642;23.384;2023-05-07T12:21:41;7.57;;;5.03;;
6424;SDS011;12193;42.642;23.384;2023-05-07T12:24:10;5.70;;;4.97;;
6424;SDS011;12193;42.642;23.384;2023-05-07T12:26:40;6.60;;;5.27;;
6424;SDS011;12193;42.642;23.384;2023-05-07T12:29:09;6.53;;;5.10;;
6424;SDS011;12193;42.642;23.384;2023-05-07T12:31:40;6.37;;;5.07;;
6424;SDS011;12193;42.642;23.384;2023-05-07T12:34:10;7.07;;;5.13;;
6424;SDS011;12193;42.642;23.384;2023-05-07T12:36:42;7.07;;;5.30;;
6424;SDS011;12193;42.642;23.384;2023-05-07T12:39:11;7.57;;;5.53;;
6424;SDS011;12193;42.642;23.384;2023-05-07T12:41:53;6.10;;;5.50;;
6424;SDS011;12193;42.642;23.384;2023-05-07T12:44:24;6.27;;;5.60;;
6424;SDS011;12193;42.642;23.384;2023-05-07T12:46:57;6.37;;;5.13;;
6424;SDS011;12193;42.642;23.384;2023-05-07T12:49:27;7.70;;;5.33;;
6424;SDS011;12193;42.642;23.384;2023-05-07T12:51:59;8.17;;;5.13;;
6424;SDS011;12193;42.642;23.384;2023-05-07T12:54:28;5.57;;;4.97;;
6424;SDS011;12193;42.642;23.384;2023-05-07T12:57:02;6.47;;;5.20;;
6424;SDS011;12193;42.642;23.384;2023-05-07T12:59:33;8.60;;;4.83;;
6424;SDS011;12193;42.642;23.384;2023-05-07T13:02:03;7.30;;;4.80;;
6424;SDS011;12193;42.642;23.384;2023-05-07T13:04:33;5.60;;;4.70;;
6424;SDS011;12193;42.642;23.384;2023-05-07T13:07:05;6.70;;;4.90;;
6424;SDS011;12193;42.642;23.384;2023-05-07T13:09:34;5.17;;;4.63;;
6424;SDS011;12193;42.642;23.384;2023-05-07T13:12:04;5.10;;;4.57;;
6424;SDS011;12193;42.642;23.384;2023-05-07T13:14:33;6.20;;;4.37;;
6424;SDS011;12193;42.642;23.384;2023-05-07T13:17:02;4.40;;;4.00;;
6424;SDS011;12193;42.642;23.384;2023-05-07T13:19:31;8.70;;;4.93;;
6424;SDS011;12193;42.642;23.384;2023-05-07T13:22:05;6.13;;;4.27;;
6424;SDS011;12193;42.642;23.384;2023-05-07T13:24:35;5.83;;;4.07;;
6424;SDS011;12193;42.642;23.384;2023-05-07T13:27:07;5.57;;;4.20;;
6424;SDS011;12193;42.642;23.384;2023-05-07T13:29:36;7.30;;;3.70;;
6424;SDS011;12193;42.642;23.384;2023-05-07T13:32:05;6.63;;;3.80;;
6424;SDS011;12193;42.642;23.384;2023-05-07T13:34:34;5.40;;;4.07;;
6424;SDS011;12193;42.642;23.384;2023-05-07T13:37:06;6.33;;;3.80;;
6424;SDS011;12193;42.642;23.384;2023-05-07T13:39:36;6.57;;;4.00;;
6424;SDS011;12193;42.642;23.384;2023-05-07T13:42:06;4.93;;;3.23;;
6424;SDS011;12193;42.642;23.384;2023-05-07T13:44:36;4.57;;;3.50;;
6424;SDS011;12193;42.642;23.384;2023-05-07T13:47:05;4.47;;;3.30;;
6424;SDS011;12193;42.642;23.384;2023-05-07T13:49:34;6.20;;;3.60;;
6424;SDS011;12193;42.642;23.384;2023-05-07T13:52:07;4.97;;;3.63;;
6424;SDS011;12193;42.642;23.384;2023-05-07T13:54:37;4.40;;;3.70;;
6424;SDS011;12193;42.642;23.384;2023-05-07T13:57:06;5.37;;;3.90;;
6424;SDS011;12193;42.642;23.384;2023-05-07T13:59:35;5.67;;;3.43;;
6424;SDS011;12193;42.642;23.384;2023-05-07T14:02:05;4.13;;;3.57;;
6424;SDS011;12193;42.642;23.384;2023-05-07T14:04:34;4.00;;;3.40;;
6424;SDS011;12193;42.642;23.384;2023-05-07T14:07:06;5.83;;;3.70;;
6424;SDS011;12193;42.642;23.384;2023-05-07T14:09:35;4.00;;;3.60;;
6424;SDS011;12193;42.642;23.384;2023-05-07T14:12:05;4.90;;;3.77;;
6424;SDS011;12193;42.642;23.384;2023-05-07T14:14:35;6.30;;;4.33;;
6424;SDS011;12193;42.642;23.384;2023-05-07T14:17:04;6.70;;;3.90;;
6424;SDS011;12193;42.642;23.384;2023-05-07T14:19:34;4.50;;;3.93;;
6424;SDS011;12193;42.642;23.384;2023-05-07T14:22:06;9.47;;;3.50;;
6424;SDS011;12193;42.642;23.384;2023-05-07T14:24:35;4.23;;;3.50;;
6424;SDS011;12193;42.642;23.384;2023-05-07T14:27:05;8.37;;;3.80;;
6424;SDS011;12193;42.642;23.384;2023-05-07T14:29:34;4.37;;;3.47;;
6424;SDS011;12193;42.642;23.384;2023-05-07T14:32:04;6.70;;;3.73;;
6424;SDS011;12193;42.642;23.384;2023-05-07T14:34:33;4.43;;;3.53;;
6424;SDS011;12193;42.642;23.384;2023-05-07T14:37:05;4.60;;;3.70;;
6424;SDS011;12193;42.642;23.384;2023-05-07T14:39:35;5.07;;;3.93;;
6424;SDS011;12193;42.642;23.384;2023-05-07T14:42:04;4.37;;;3.97;;
6424;SDS011;12193;42.642;23.384;2023-05-07T14:44:34;4.47;;;3.90;;
6424;SDS011;12193;42.642;23.384;2023-05-07T14:47:03;4.03;;;3.60;;
6424;SDS011;12193;42.642;23.384;2023-05-07T14:49:32;4.57;;;3.93;;
6424;SDS011;12193;42.642;23.384;2023-05-07T14:52:02;4.60;;;3.60;;
6424;SDS011;12193;42.642;23.384;2023-05-07T14:54:36;3.77;;;3.37;;
6424;SDS011;12193;42.642;23.384;2023-05-07T14:57:09;4.53;;;3.57;;
6424;SDS011;12193;42.642;23.384;2023-05-07T14:59:40;4.70;;;3.63;;
6424;SDS011;12193;42.642;23.384;2023-05-07T15:02:09;6.70;;;4.30;;
6424;SDS011;12193;42.642;23.384;2023-05-07T15:04:39;5.33;;;3.77;;
6424;SDS011;12193;42.642;23.384;2023-05-07T15:07:11;4.70;;;3.80;;
6424;SDS011;12193;42.642;23.384;2023-05-07T15:09:44;4.50;;;3.70;;
6424;SDS011;12193;42.642;23.384;2023-05-07T15:12:13;5.23;;;4.20;;
6424;SDS011;12193;42.642;23.384;2023-05-07T15:14:43;4.60;;;4.00;;
6424;SDS011;12193;42.642;23.384;2023-05-07T15:17:13;5.93;;;3.60;;
6424;SDS011;12193;42.642;23.384;2023-05-07T15:19:43;5.43;;;3.80;;
6424;SDS011;12193;42.642;23.384;2023-05-07T15:22:12;5.40;;;3.27;;
6424;SDS011;12193;42.642;23.384;2023-05-07T15:24:44;7.23;;;4.07;;
6424;SDS011;12193;42.642;23.384;2023-05-07T15:27:13;5.63;;;3.80;;
6424;SDS011;12193;42.642;23.384;2023-05-07T15:29:43;4.83;;;3.93;;
6424;SDS011;12193;42.642;23.384;2023-05-07T15:32:12;4.70;;;3.60;;
6424;SDS011;12193;42.642;23.384;2023-05-07T15:34:41;4.73;;;3.80;;
6424;SDS011;12193;42.642;23.384;2023-05-07T15:37:11;5.97;;;4.07;;
6424;SDS011;12193;42.642;23.384;2023-05-07T15:39:40;4.97;;;4.07;;
6424;SDS011;12193;42.642;23.384;2023-05-07T15:42:12;4.10;;;3.60;;
6424;SDS011;12193;42.642;23.384;2023-05-07T15:44:41;5.97;;;3.60;;
6424;SDS011;12193;42.642;23.384;2023-05-07T15:47:11;6.07;;;4.67;;
6424;SDS011;12193;42.642;23.384;2023-05-07T15:49:40;4.17;;;3.70;;
6424;SDS011;12193;42.642;23.384;2023-05-07T15:52:10;9.60;;;4.27;;
6424;SDS011;12193;42.642;23.384;2023-05-07T15:54:40;7.33;;;4.30;;
6424;SDS011;12193;42.642;23.384;2023-05-07T15:57:12;4.43;;;4.00;;
6424;SDS011;12193;42.642;23.384;2023-05-07T15:59:41;4.23;;;3.80;;
6424;SDS011;12193;42.642;23.384;2023-05-07T16:02:10;6.47;;;3.80;;
6424;SDS011;12193;42.642;23.384;2023-05-07T16:04:40;5.03;;;4.07;;
6424;SDS011;12193;42.642;23.384;2023-05-07T16:07:09;4.43;;;3.80;;
6424;SDS011;12193;42.642;23.384;2023-05-07T16:09:38;4.53;;;3.90;;
6424;SDS011;12193;42.642;23.384;2023-05-07T16:12:08;6.53;;;3.53;;
6424;SDS011;12193;42.642;23.384;2023-05-07T16:14:40;4.57;;;3.87;;
6424;SDS011;12193;42.642;23.384;2023-05-07T16:17:09;7.13;;;4.20;;
6424;SDS011;12193;42.642;23.384;2023-05-07T16:19:39;6.13;;;3.73;;
6424;SDS011;12193;42.642;23.384;2023-05-07T16:22:08;7.67;;;4.50;;
6424;SDS011;12193;42.642;23.384;2023-05-07T16:24:37;3.80;;;3.40;;
6424;SDS011;12193;42.642;23.384;2023-05-07T16:27:06;5.80;;;3.50;;
6424;SDS011;12193;42.642;23.384;2023-05-07T16:29:36;4.30;;;3.60;;
6424;SDS011;12193;42.642;23.384;2023-05-07T16:32:08;5.47;;;3.93;;
6424;SDS011;12193;42.642;23.384;2023-05-07T16:34:38;5.50;;;3.90;;
6424;SDS011;12193;42.642;23.384;2023-05-07T16:37:07;4.27;;;3.67;;
6424;SDS011;12193;42.642;23.384;2023-05-07T16:39:36;9.67;;;6.53;;
6424;SDS011;12193;42.642;23.384;2023-05-07T16:42:05;6.23;;;3.50;;
6424;SDS011;12193;42.642;23.384;2023-05-07T16:44:35;8.07;;;4.80;;
6424;SDS011;12193;42.642;23.384;2023-05-07T16:47:04;5.40;;;3.90;;
6424;SDS011;12193;42.642;23.384;2023-05-07T16:49:36;4.30;;;3.43;;
6424;SDS011;12193;42.642;23.384;2023-05-07T16:52:05;7.60;;;3.97;;
6424;SDS011;12193;42.642;23.384;2023-05-07T16:54:35;6.60;;;4.67;;
6424;SDS011;12193;42.642;23.384;2023-05-07T16:57:04;4.73;;;3.50;;
6424;SDS011;12193;42.642;23.384;2023-05-07T16:59:33;6.37;;;3.50;;
6424;SDS011;12193;42.642;23.384;2023-05-07T17:02:02;6.73;;;3.90;;
6424;SDS011;12193;42.642;23.384;2023-05-07T17:04:32;5.57;;;3.77;;
6424;SDS011;12193;42.642;23.384;2023-05-07T17:07:04;8.30;;;3.87;;
6424;SDS011;12193;42.642;23.384;2023-05-07T17:09:33;8.63;;;4.23;;
6424;SDS011;12193;42.642;23.384;2023-05-07T17:12:03;5.23;;;4.07;;
6424;SDS011;12193;42.642;23.384;2023-05-07T17:14:32;6.67;;;4.00;;
6424;SDS011;12193;42.642;23.384;2023-05-07T17:17:02;8.80;;;5.13;;
6424;SDS011;12193;42.642;23.384;2023-05-07T17:19:31;5.77;;;4.00;;
6424;SDS011;12193;42.642;23.384;2023-05-07T17:22:04;7.80;;;4.47;;
6424;SDS011;12193;42.642;23.384;2023-05-07T17:24:34;4.83;;;4.23;;
6424;SDS011;12193;42.642;23.384;2023-05-07T17:27:03;6.53;;;4.30;;
6424;SDS011;12193;42.642;23.384;2023-05-07T17:29:32;6.73;;;4.07;;
6424;SDS011;12193;42.642;23.384;2023-05-07T17:32:01;5.30;;;4.10;;
6424;SDS011;12193;42.642;23.384;2023-05-07T17:34:31;5.60;;;4.43;;
6424;SDS011;12193;42.642;23.384;2023-05-07T17:37:01;6.83;;;4.67;;
6424;SDS011;12193;42.642;23.384;2023-05-07T17:39:33;5.90;;;4.23;;
6424;SDS011;12193;42.642;23.384;2023-05-07T17:42:03;6.07;;;4.20;;
6424;SDS011;12193;42.642;23.384;2023-05-07T17:44:33;7.73;;;4.53;;
6424;SDS011;12193;42.642;23.384;2023-05-07T17:47:02;5.43;;;4.27;;
6424;SDS011;12193;42.642;23.384;2023-05-07T17:49:32;5.47;;;4.40;;
6424;SDS011;12193;42.642;23.384;2023-05-07T17:52:04;6.27;;;4.10;;
6424;SDS011;12193;42.642;23.384;2023-05-07T17:54:34;4.77;;;4.10;;
6424;SDS011;12193;42.642;23.384;2023-05-07T17:57:03;5.20;;;4.00;;
6424;SDS011;12193;42.642;23.384;2023-05-07T17:59:33;6.13;;;4.13;;
6424;SDS011;12193;42.642;23.384;2023-05-07T18:02:02;6.13;;;4.00;;
6424;SDS011;12193;42.642;23.384;2023-05-07T18:04:31;6.57;;;4.30;;
6424;SDS011;12193;42.642;23.384;2023-05-07T18:07:00;7.90;;;4.20;;
6424;SDS011;12193;42.642;23.384;2023-05-07T18:09:33;6.00;;;4.10;;
6424;SDS011;12193;42.642;23.384;2023-05-07T18:12:02;6.57;;;4.20;;
6424;SDS011;12193;42.642;23.384;2023-05-07T18:14:31;5.80;;;4.10;;
6424;SDS011;12193;42.642;23.384;2023-05-07T18:17:01;8.47;;;4.20;;
6424;SDS011;12193;42.642;23.384;2023-05-07T18:19:31;6.40;;;4.13;;